createdAt,value
2022-11-16T00:00:13.528Z,983.67
2022-11-16T00:01:13.449Z,983.65
2022-11-16T00:02:13.840Z,983.66
2022-11-16T00:03:12.846Z,983.68
2022-11-16T00:04:13.891Z,983.71
2022-11-16T00:05:13.922Z,983.65
2022-11-16T00:06:27.108Z,983.69
2022-11-16T00:07:13.974Z,983.66
2022-11-16T00:08:13.388Z,983.63
2022-11-16T00:09:13.404Z,983.59
2022-11-16T00:10:13.422Z,983.60
2022-11-16T00:11:13.581Z,983.63
2022-11-16T00:12:14.151Z,983.59
2022-11-16T00:13:13.431Z,983.59
2022-11-16T00:14:13.382Z,983.58
2022-11-16T00:15:13.364Z,983.56
2022-11-16T00:16:13.629Z,983.57
2022-11-16T00:17:14.206Z,983.56
2022-11-16T00:18:13.407Z,983.53
2022-11-16T00:19:13.394Z,983.55
2022-11-16T00:20:13.425Z,983.52
2022-11-16T00:21:16.100Z,983.54
2022-11-16T00:22:18.315Z,983.52
2022-11-16T00:23:13.482Z,983.52
2022-11-16T00:24:13.962Z,983.51
2022-11-16T00:25:12.907Z,983.52
2022-11-16T00:26:12.951Z,983.52
2022-11-16T00:27:12.983Z,983.52
2022-11-16T00:28:22.268Z,983.52
2022-11-16T00:29:13.270Z,983.52
2022-11-16T00:30:13.392Z,983.54
2022-11-16T00:31:13.378Z,983.51
2022-11-16T00:32:13.880Z,983.48
2022-11-16T00:33:13.506Z,983.51
2022-11-16T00:34:14.399Z,983.47
2022-11-16T00:35:13.758Z,983.52
2022-11-16T00:36:13.978Z,983.45
2022-11-16T00:37:13.428Z,983.43
2022-11-16T00:38:13.609Z,983.48
2022-11-16T00:39:13.724Z,983.45
2022-11-16T00:40:25.378Z,983.46
2022-11-16T00:41:18.719Z,983.43
2022-11-16T00:42:37.122Z,983.45
2022-11-16T00:43:13.292Z,983.42
2022-11-16T00:44:18.401Z,983.41
2022-11-16T00:45:13.382Z,983.43
2022-11-16T00:46:15.897Z,983.40
2022-11-16T00:47:13.163Z,983.44
2022-11-16T00:48:13.262Z,983.39
2022-11-16T00:49:13.311Z,983.40
2022-11-16T00:50:13.565Z,983.39
2022-11-16T00:51:13.606Z,983.40
2022-11-16T00:52:13.963Z,983.37
2022-11-16T00:53:12.926Z,983.40
2022-11-16T00:54:12.800Z,983.36
2022-11-16T00:55:31.663Z,983.34
2022-11-16T00:56:14.012Z,983.29
2022-11-16T00:57:44.098Z,983.34
2022-11-16T00:58:15.051Z,983.31
2022-11-16T00:59:14.736Z,983.31
2022-11-16T01:00:13.648Z,983.31
2022-11-16T01:01:13.763Z,983.31
2022-11-16T01:02:14.098Z,983.30
2022-11-16T01:03:13.004Z,983.29
2022-11-16T01:04:12.928Z,983.24
2022-11-16T01:05:12.872Z,983.28
2022-11-16T01:06:13.945Z,983.26
2022-11-16T01:07:13.269Z,983.26
2022-11-16T01:08:13.495Z,983.22
2022-11-16T01:09:13.689Z,983.25
2022-11-16T01:10:14.021Z,983.26
2022-11-16T01:11:13.259Z,983.22
2022-11-16T01:12:13.416Z,983.20
2022-11-16T01:13:13.616Z,983.19
2022-11-16T01:14:13.946Z,983.21
2022-11-16T01:15:12.839Z,983.22
2022-11-16T01:16:14.025Z,983.20
2022-11-16T01:17:12.963Z,983.12
2022-11-16T01:18:12.923Z,983.14
2022-11-16T01:19:13.153Z,983.12
2022-11-16T01:20:13.314Z,983.12
2022-11-16T01:21:13.321Z,983.08
2022-11-16T01:22:13.686Z,983.12
2022-11-16T01:23:14.558Z,983.10
2022-11-16T01:24:13.724Z,983.07
2022-11-16T01:25:13.776Z,983.08
2022-11-16T01:26:13.817Z,983.07
2022-11-16T01:27:13.986Z,983.08
2022-11-16T01:28:13.159Z,983.06
2022-11-16T01:29:13.152Z,983.05
2022-11-16T01:30:13.334Z,983.04
2022-11-16T01:31:13.344Z,983.01
2022-11-16T01:32:13.335Z,983.00
2022-11-16T01:33:13.162Z,982.98
2022-11-16T01:34:13.125Z,982.99
2022-11-16T01:35:13.042Z,982.97
2022-11-16T01:36:12.963Z,982.97
2022-11-16T01:37:12.955Z,982.97
2022-11-16T01:38:12.847Z,982.95
2022-11-16T01:39:13.830Z,982.94
2022-11-16T01:40:14.057Z,982.94
2022-11-16T01:41:13.117Z,982.92
2022-11-16T01:42:13.359Z,982.90
2022-11-16T01:43:13.533Z,982.90
2022-11-16T01:44:13.505Z,982.91
2022-11-16T01:45:13.426Z,982.90
2022-11-16T01:46:13.360Z,982.89
2022-11-16T01:47:13.659Z,982.88
2022-11-16T01:48:13.731Z,982.89
2022-11-16T01:49:13.734Z,982.87
2022-11-16T01:50:13.750Z,982.89
2022-11-16T01:51:14.064Z,982.91
2022-11-16T01:52:13.151Z,982.87
2022-11-16T01:53:13.181Z,982.86
2022-11-16T01:54:13.086Z,982.87
2022-11-16T01:55:13.227Z,982.87
2022-11-16T01:56:13.170Z,982.85
2022-11-16T01:57:13.415Z,982.84
2022-11-16T01:58:13.799Z,982.84
2022-11-16T01:59:13.769Z,982.82
2022-11-16T02:00:13.706Z,982.80
2022-11-16T02:01:13.896Z,982.79
2022-11-16T02:02:13.149Z,982.79
2022-11-16T02:03:13.153Z,982.78
2022-11-16T02:04:13.496Z,982.78
2022-11-16T02:05:14.095Z,982.77
2022-11-16T02:06:13.244Z,982.79
2022-11-16T02:07:13.243Z,982.77
2022-11-16T02:08:13.325Z,982.77
2022-11-16T02:09:13.457Z,982.74
2022-11-16T02:10:13.508Z,982.76
2022-11-16T02:11:13.892Z,982.73
2022-11-16T02:12:12.951Z,982.76
2022-11-16T02:13:13.162Z,982.73
2022-11-16T02:14:13.273Z,982.73
2022-11-16T02:15:13.503Z,982.68
2022-11-16T02:16:13.720Z,982.70
2022-11-16T02:17:13.789Z,982.68
2022-11-16T02:18:13.856Z,982.70
2022-11-16T02:19:13.912Z,982.68
2022-11-16T02:20:13.023Z,982.65
2022-11-16T02:21:13.501Z,982.66
2022-11-16T02:22:13.551Z,982.64
2022-11-16T02:23:14.097Z,982.66
2022-11-16T02:24:13.249Z,982.64
2022-11-16T02:25:13.202Z,982.62
2022-11-16T02:26:13.092Z,982.63
2022-11-16T02:27:13.054Z,982.61
2022-11-16T02:28:12.962Z,982.59
2022-11-16T02:29:13.130Z,982.58
2022-11-16T02:30:13.008Z,982.63
2022-11-16T02:31:12.921Z,982.62
2022-11-16T02:32:12.824Z,982.62
2022-11-16T02:33:14.091Z,982.59
2022-11-16T02:34:13.542Z,982.55
2022-11-16T02:35:13.474Z,982.53
2022-11-16T02:36:13.450Z,982.51
2022-11-16T02:37:13.351Z,982.52
2022-11-16T02:38:13.409Z,982.52
2022-11-16T02:39:13.338Z,982.54
2022-11-16T02:40:14.359Z,982.49
2022-11-16T02:41:13.558Z,982.50
2022-11-16T02:42:13.576Z,982.54
2022-11-16T02:43:13.657Z,982.51
2022-11-16T02:44:13.848Z,982.49
2022-11-16T02:45:13.767Z,982.55
2022-11-16T02:46:13.758Z,982.61
2022-11-16T02:47:13.881Z,982.57
2022-11-16T02:48:13.119Z,982.60
2022-11-16T02:49:13.114Z,982.70
2022-11-16T02:50:13.228Z,982.76
2022-11-16T02:51:13.391Z,982.75
2022-11-16T02:52:13.362Z,982.69
2022-11-16T02:53:13.708Z,982.70
2022-11-16T02:54:15.315Z,982.74
2022-11-16T02:55:13.247Z,982.74
2022-11-16T02:56:13.132Z,982.76
2022-11-16T02:57:13.142Z,982.84
2022-11-16T02:58:13.030Z,982.81
2022-11-16T02:59:17.408Z,982.79
2022-11-16T03:00:14.330Z,982.74
2022-11-16T03:01:13.425Z,982.75
2022-11-16T03:02:13.628Z,982.76
2022-11-16T03:03:13.781Z,982.72
2022-11-16T03:04:13.849Z,982.75
2022-11-16T03:05:13.698Z,982.72
2022-11-16T03:06:13.912Z,982.70
2022-11-16T03:07:13.078Z,982.67
2022-11-16T03:08:13.259Z,982.68
2022-11-16T03:09:13.240Z,982.63
2022-11-16T03:10:13.156Z,982.59
2022-11-16T03:11:13.534Z,982.58
2022-11-16T03:12:13.922Z,982.59
2022-11-16T03:13:13.181Z,982.52
2022-11-16T03:14:13.370Z,982.52
2022-11-16T03:15:13.250Z,982.50
2022-11-16T03:16:13.433Z,982.50
2022-11-16T03:17:13.332Z,982.49
2022-11-16T03:18:13.242Z,982.51
2022-11-16T03:19:13.352Z,982.48
2022-11-16T03:20:13.317Z,982.46
2022-11-16T03:21:13.480Z,982.49
2022-11-16T03:22:13.941Z,982.47
2022-11-16T03:23:12.814Z,982.42
2022-11-16T03:24:13.756Z,982.43
2022-11-16T03:25:14.464Z,982.38
2022-11-16T03:26:13.412Z,982.39
2022-11-16T03:27:13.291Z,982.40
2022-11-16T03:28:13.502Z,982.38
2022-11-16T03:29:13.521Z,982.35
2022-11-16T03:30:13.694Z,982.36
2022-11-16T03:31:13.611Z,982.35
2022-11-16T03:32:13.609Z,982.36
2022-11-16T03:33:14.053Z,982.36
2022-11-16T03:34:13.074Z,982.31
2022-11-16T03:35:13.152Z,982.27
2022-11-16T03:36:13.214Z,982.23
2022-11-16T03:37:13.088Z,982.21
2022-11-16T03:38:13.367Z,982.20
2022-11-16T03:39:13.550Z,982.21
2022-11-16T03:40:13.441Z,982.22
2022-11-16T03:41:13.639Z,982.26
2022-11-16T03:42:13.905Z,982.25
2022-11-16T03:43:13.032Z,982.22
2022-11-16T03:44:12.937Z,982.23
2022-11-16T03:45:12.869Z,982.25
2022-11-16T03:46:14.167Z,982.26
2022-11-16T03:47:13.144Z,982.21
2022-11-16T03:48:13.301Z,982.27
2022-11-16T03:49:13.492Z,982.25
2022-11-16T03:50:13.435Z,982.26
2022-11-16T03:51:13.443Z,982.27
2022-11-16T03:52:13.517Z,982.21
2022-11-16T03:53:13.501Z,982.16
2022-11-16T03:54:13.323Z,982.16
2022-11-16T03:55:13.333Z,982.18
2022-11-16T03:56:13.265Z,982.23
2022-11-16T03:57:13.176Z,982.17
2022-11-16T03:58:13.487Z,982.18
2022-11-16T03:59:13.515Z,982.21
2022-11-16T04:00:13.680Z,982.19
2022-11-16T04:01:13.617Z,982.20
2022-11-16T04:02:13.645Z,982.21
2022-11-16T04:03:13.723Z,982.20
2022-11-16T04:04:12.923Z,982.25
2022-11-16T04:05:12.880Z,982.23
2022-11-16T04:06:14.212Z,982.29
2022-11-16T04:07:13.239Z,982.26
2022-11-16T04:08:13.100Z,982.31
2022-11-16T04:09:12.941Z,982.31
2022-11-16T04:10:12.886Z,982.33
2022-11-16T04:11:12.723Z,982.33
2022-11-16T04:12:13.736Z,982.33
2022-11-16T04:13:13.811Z,982.39
2022-11-16T04:14:13.803Z,982.39
2022-11-16T04:15:14.084Z,982.34
2022-11-16T04:16:13.068Z,982.39
2022-11-16T04:17:12.978Z,982.40
2022-11-16T04:18:13.236Z,982.39
2022-11-16T04:19:13.377Z,982.41
2022-11-16T04:20:13.526Z,982.44
2022-11-16T04:21:13.771Z,982.43
2022-11-16T04:22:13.605Z,982.43
2022-11-16T04:23:13.627Z,982.43
2022-11-16T04:24:13.863Z,982.46
2022-11-16T04:25:14.109Z,982.51
2022-11-16T04:26:13.632Z,982.48
2022-11-16T04:27:13.604Z,982.49
2022-11-16T04:28:13.494Z,982.52
2022-11-16T04:29:13.463Z,982.50
2022-11-16T04:30:13.510Z,982.52
2022-11-16T04:31:13.562Z,982.51
2022-11-16T04:32:13.424Z,982.48
2022-11-16T04:33:15.417Z,982.47
2022-11-16T04:34:13.293Z,982.46
2022-11-16T04:35:13.191Z,982.44
2022-11-16T04:36:17.889Z,982.47
2022-11-16T04:37:13.576Z,982.50
2022-11-16T04:38:13.589Z,982.51
2022-11-16T04:39:13.426Z,982.54
2022-11-16T04:40:13.510Z,982.55
2022-11-16T04:41:13.533Z,982.55
2022-11-16T04:42:13.877Z,982.55
2022-11-16T04:43:19.184Z,982.59
2022-11-16T04:44:18.254Z,982.58
2022-11-16T04:45:13.305Z,982.62
2022-11-16T04:46:13.367Z,982.60
2022-11-16T04:47:13.412Z,982.61
2022-11-16T04:48:13.357Z,982.64
2022-11-16T04:49:13.510Z,982.64
2022-11-16T04:50:13.362Z,982.62
2022-11-16T04:51:13.787Z,982.59
2022-11-16T04:52:13.663Z,982.65
2022-11-16T04:53:13.698Z,982.65
2022-11-16T04:54:13.803Z,982.67
2022-11-16T04:55:13.958Z,982.66
2022-11-16T04:56:12.954Z,982.67
2022-11-16T04:57:13.108Z,982.67
2022-11-16T04:58:13.193Z,982.67
2022-11-16T04:59:13.922Z,982.68
2022-11-16T05:00:13.681Z,982.63
2022-11-16T05:01:13.863Z,982.70
2022-11-16T05:02:12.826Z,982.68
2022-11-16T05:03:13.868Z,982.72
2022-11-16T05:04:13.767Z,982.67
2022-11-16T05:05:13.950Z,982.66
2022-11-16T05:06:13.081Z,982.68
2022-11-16T05:07:13.412Z,982.68
2022-11-16T05:08:13.763Z,982.68
2022-11-16T05:09:13.833Z,982.67
2022-11-16T05:10:29.140Z,982.68
2022-11-16T05:11:13.182Z,982.67
2022-11-16T05:12:13.112Z,982.69
2022-11-16T05:13:29.783Z,982.68
2022-11-16T05:14:13.973Z,982.68
2022-11-16T05:15:12.919Z,982.66
2022-11-16T05:16:12.942Z,982.70
2022-11-16T05:17:12.856Z,982.71
2022-11-16T05:18:13.897Z,982.67
2022-11-16T05:19:12.947Z,982.65
2022-11-16T05:21:16.007Z,982.62
2022-11-16T05:22:13.164Z,982.65
2022-11-16T05:23:20.558Z,982.63
2022-11-16T05:24:13.668Z,982.59
2022-11-16T05:25:13.558Z,982.62
2022-11-16T05:26:13.462Z,982.66
2022-11-16T05:27:13.598Z,982.63
2022-11-16T05:28:13.676Z,982.66
2022-11-16T05:29:13.656Z,982.65
2022-11-16T05:30:13.556Z,982.63
2022-11-16T05:31:13.583Z,982.67
2022-11-16T05:32:15.008Z,982.70
2022-11-16T05:33:12.991Z,982.71
2022-11-16T05:34:12.935Z,982.75
2022-11-16T05:35:13.175Z,982.72
2022-11-16T05:36:13.249Z,982.75
2022-11-16T05:37:13.126Z,982.76
2022-11-16T05:38:13.098Z,982.74
2022-11-16T05:39:13.082Z,982.73
2022-11-16T05:40:13.419Z,982.74
2022-11-16T05:41:13.696Z,982.71
2022-11-16T05:42:13.737Z,982.72
2022-11-16T05:43:13.670Z,982.77
2022-11-16T05:44:14.056Z,982.77
2022-11-16T05:45:17.134Z,982.80
2022-11-16T05:46:12.950Z,982.86
2022-11-16T05:48:12.946Z,982.87
2022-11-16T05:49:12.890Z,982.90
2022-11-16T05:50:42.325Z,982.87
2022-11-16T05:51:27.679Z,982.93
2022-11-16T05:52:15.057Z,982.93
2022-11-16T05:53:13.100Z,982.94
2022-11-16T05:54:13.459Z,982.91
2022-11-16T05:55:13.430Z,982.93
2022-11-16T05:56:13.409Z,982.96
2022-11-16T05:57:13.647Z,982.94
2022-11-16T05:58:13.934Z,982.97
2022-11-16T05:59:16.453Z,983.02
2022-11-16T06:00:13.714Z,982.98
2022-11-16T06:01:13.729Z,983.01
2022-11-16T06:02:13.721Z,983.01
2022-11-16T06:03:13.702Z,983.02
2022-11-16T06:04:13.634Z,983.02
2022-11-16T06:05:14.257Z,983.04
2022-11-16T06:06:18.216Z,983.07
2022-11-16T06:07:13.227Z,983.02
2022-11-16T06:09:43.776Z,983.09
2022-11-16T06:10:13.808Z,983.08
2022-11-16T06:11:13.872Z,983.09
2022-11-16T06:12:14.132Z,983.18
2022-11-16T06:13:13.066Z,983.17
2022-11-16T06:15:36.393Z,983.19
2022-11-16T06:16:13.668Z,983.20
2022-11-16T06:17:14.052Z,983.20
2022-11-16T06:18:13.087Z,983.22
2022-11-16T06:19:13.353Z,983.18
2022-11-16T06:20:13.309Z,983.20
2022-11-16T06:21:13.440Z,983.23
2022-11-16T06:22:13.720Z,983.25
2022-11-16T06:23:13.578Z,983.24
2022-11-16T06:24:13.497Z,983.25
2022-11-16T06:26:13.370Z,983.20
2022-11-16T06:27:13.595Z,983.25
2022-11-16T06:28:13.591Z,983.23
2022-11-16T06:29:15.232Z,983.22
2022-11-16T06:30:15.062Z,983.26
2022-11-16T06:31:13.260Z,983.30
2022-11-16T06:32:26.755Z,983.32
2022-11-16T06:34:13.124Z,983.31
2022-11-16T06:35:13.048Z,983.33
2022-11-16T06:36:13.094Z,983.34
2022-11-16T06:37:13.303Z,983.30
2022-11-16T06:38:13.296Z,983.29
2022-11-16T06:39:13.238Z,983.32
2022-11-16T06:40:13.311Z,983.30
2022-11-16T06:42:23.812Z,983.30
2022-11-16T06:43:13.901Z,983.30
2022-11-16T06:44:13.235Z,983.31
2022-11-16T06:45:35.946Z,983.32
2022-11-16T06:46:13.267Z,983.36
2022-11-16T06:47:13.334Z,983.35
2022-11-16T06:48:13.568Z,983.34
2022-11-16T06:49:13.688Z,983.33
2022-11-16T06:50:15.138Z,983.38
2022-11-16T06:51:13.123Z,983.42
2022-11-16T06:52:13.063Z,983.47
2022-11-16T06:53:15.001Z,983.47
2022-11-16T06:54:18.008Z,983.46
2022-11-16T06:55:12.977Z,983.45
2022-11-16T06:56:13.141Z,983.43
2022-11-16T06:57:12.937Z,983.47
2022-11-16T06:58:14.055Z,983.48
2022-11-16T06:59:12.999Z,983.46
2022-11-16T07:00:13.004Z,983.51
2022-11-16T07:01:34.229Z,983.51
2022-11-16T07:02:36.529Z,983.52
2022-11-16T07:03:13.605Z,983.51
2022-11-16T07:04:14.013Z,983.55
2022-11-16T07:05:12.945Z,983.50
2022-11-16T07:06:12.865Z,983.53
2022-11-16T07:07:13.846Z,983.54
2022-11-16T07:08:14.014Z,983.53
2022-11-16T07:09:13.131Z,983.55
2022-11-16T07:10:13.208Z,983.57
2022-11-16T07:11:13.331Z,983.59
2022-11-16T07:12:13.426Z,983.58
2022-11-16T07:13:13.876Z,983.61
2022-11-16T07:14:13.954Z,983.61
2022-11-16T07:15:13.163Z,983.65
2022-11-16T07:16:13.037Z,983.64
2022-11-16T07:17:13.142Z,983.68
2022-11-16T07:18:13.393Z,983.61
2022-11-16T07:19:13.298Z,983.62
2022-11-16T07:20:13.336Z,983.64
2022-11-16T07:21:13.283Z,983.60
2022-11-16T07:22:13.340Z,983.63
2022-11-16T07:23:14.325Z,983.61
2022-11-16T07:24:13.120Z,983.68
2022-11-16T07:25:13.552Z,983.73
2022-11-16T07:26:13.956Z,983.76
2022-11-16T07:27:13.265Z,983.79
2022-11-16T07:28:13.172Z,983.83
2022-11-16T07:30:13.293Z,983.84
2022-11-16T07:31:13.581Z,983.87
2022-11-16T07:32:13.911Z,983.88
2022-11-16T07:33:12.896Z,983.93
2022-11-16T07:34:12.954Z,983.97
2022-11-16T07:35:18.043Z,983.94
2022-11-16T07:36:13.175Z,983.99
2022-11-16T07:37:13.045Z,983.99
2022-11-16T07:38:17.721Z,983.97
2022-11-16T07:39:13.207Z,984.01
2022-11-16T07:40:13.374Z,983.98
2022-11-16T07:41:15.631Z,983.99
2022-11-16T07:42:13.654Z,984.00
2022-11-16T07:43:13.678Z,984.01
2022-11-16T07:44:21.486Z,984.04
2022-11-16T07:45:13.593Z,984.05
2022-11-16T07:46:45.149Z,984.09
2022-11-16T07:47:13.273Z,984.08
2022-11-16T07:48:13.435Z,984.11
2022-11-16T07:49:13.405Z,984.11
2022-11-16T07:50:13.308Z,984.13
2022-11-16T07:51:18.953Z,984.14
2022-11-16T07:52:13.218Z,984.16
2022-11-16T07:53:13.198Z,984.17
2022-11-16T07:54:13.139Z,984.23
2022-11-16T07:55:14.017Z,984.23
2022-11-16T07:56:13.409Z,984.21
2022-11-16T07:57:14.351Z,984.26
2022-11-16T07:58:13.216Z,984.26
2022-11-16T07:59:13.261Z,984.28
2022-11-16T08:00:14.475Z,984.28
2022-11-16T08:01:14.894Z,984.30
2022-11-16T08:02:13.897Z,984.25
2022-11-16T08:03:13.197Z,984.31
2022-11-16T08:04:13.536Z,984.30
2022-11-16T08:05:13.786Z,984.29
2022-11-16T08:06:13.842Z,984.29
2022-11-16T08:07:13.978Z,984.33
2022-11-16T08:08:13.354Z,984.30
2022-11-16T08:09:13.657Z,984.35
2022-11-16T08:10:13.974Z,984.29
2022-11-16T08:11:12.998Z,984.33
2022-11-16T08:12:12.937Z,984.29
2022-11-16T08:13:13.104Z,984.32
2022-11-16T08:14:13.473Z,984.33
2022-11-16T08:15:13.469Z,984.37
2022-11-16T08:16:13.451Z,984.33
2022-11-16T08:17:13.786Z,984.38
2022-11-16T08:18:13.723Z,984.40
2022-11-16T08:19:13.899Z,984.38
2022-11-16T08:20:12.921Z,984.41
2022-11-16T08:21:13.182Z,984.45
2022-11-16T08:22:13.309Z,984.45
2022-11-16T08:23:14.726Z,984.47
2022-11-16T08:24:13.755Z,984.49
2022-11-16T08:25:13.877Z,984.47
2022-11-16T08:26:13.924Z,984.45
2022-11-16T08:27:12.826Z,984.48
2022-11-16T08:28:19.029Z,984.47
2022-11-16T08:29:13.199Z,984.48
2022-11-16T08:30:13.268Z,984.48
2022-11-16T08:31:13.306Z,984.48
2022-11-16T08:32:13.410Z,984.48
2022-11-16T08:33:13.478Z,984.48
2022-11-16T08:34:13.427Z,984.48
2022-11-16T08:35:13.539Z,984.52
2022-11-16T08:36:14.403Z,984.50
2022-11-16T08:37:13.606Z,984.52
2022-11-16T08:38:13.489Z,984.54
2022-11-16T08:39:13.415Z,984.58
2022-11-16T08:40:13.555Z,984.60
2022-11-16T08:41:13.940Z,984.61
2022-11-16T08:42:13.301Z,984.63
2022-11-16T08:43:13.232Z,984.63
2022-11-16T08:44:13.114Z,984.64
2022-11-16T08:45:13.299Z,984.66
2022-11-16T08:46:13.272Z,984.69
2022-11-16T08:47:13.464Z,984.74
2022-11-16T08:48:39.056Z,984.76
2022-11-16T08:49:12.973Z,984.77
2022-11-16T08:50:12.836Z,984.82
2022-11-16T08:51:18.637Z,984.85
2022-11-16T08:52:13.031Z,984.85
2022-11-16T08:53:12.961Z,984.87
2022-11-16T08:54:12.999Z,984.82
2022-11-16T08:55:12.942Z,984.89
2022-11-16T08:56:13.114Z,984.86
2022-11-16T08:57:13.363Z,984.87
2022-11-16T08:58:13.768Z,984.89
2022-11-16T08:59:13.722Z,984.91
2022-11-16T09:00:13.795Z,984.91
2022-11-16T09:01:13.843Z,984.87
2022-11-16T09:02:13.269Z,984.93
2022-11-16T09:03:13.435Z,984.92
2022-11-16T09:04:13.582Z,984.92
2022-11-16T09:05:13.641Z,984.93
2022-11-16T09:06:14.155Z,984.92
2022-11-16T09:07:13.110Z,984.94
2022-11-16T09:08:13.252Z,984.92
2022-11-16T09:09:13.296Z,984.92
2022-11-16T09:10:13.403Z,984.95
2022-11-16T09:11:18.609Z,984.95
2022-11-16T09:12:48.831Z,984.96
2022-11-16T09:13:14.993Z,984.96
2022-11-16T09:14:13.154Z,984.96
2022-11-16T09:15:13.346Z,984.97
2022-11-16T09:16:13.445Z,984.99
2022-11-16T09:17:14.868Z,985.00
2022-11-16T09:18:13.937Z,985.00
2022-11-16T09:19:12.885Z,984.99
2022-11-16T09:20:13.790Z,985.01
2022-11-16T09:21:13.835Z,984.98
2022-11-16T09:22:14.248Z,984.98
2022-11-16T09:23:13.279Z,985.03
2022-11-16T09:24:13.437Z,985.04
2022-11-16T09:25:13.703Z,985.09
2022-11-16T09:26:14.660Z,985.08
2022-11-16T09:27:13.609Z,985.08
2022-11-16T09:28:13.471Z,985.10
2022-11-16T09:29:13.505Z,985.06
2022-11-16T09:30:13.584Z,985.15
2022-11-16T09:31:17.588Z,985.17
2022-11-16T09:32:13.337Z,985.13
2022-11-16T09:33:13.177Z,985.17
2022-11-16T09:34:13.214Z,985.25
2022-11-16T09:35:13.419Z,985.31
2022-11-16T09:36:13.365Z,985.27
2022-11-16T09:37:13.290Z,985.29
2022-11-16T09:38:19.080Z,985.28
2022-11-16T09:39:30.236Z,985.21
2022-11-16T09:40:13.320Z,985.21
2022-11-16T09:41:13.369Z,985.24
2022-11-16T09:42:13.238Z,985.27
2022-11-16T09:43:13.644Z,985.30
2022-11-16T09:44:14.053Z,985.24
2022-11-16T09:45:13.017Z,985.24
2022-11-16T09:46:13.154Z,985.24
2022-11-16T09:47:13.155Z,985.29
2022-11-16T09:48:18.086Z,985.27
2022-11-16T09:49:17.186Z,985.27
2022-11-16T09:50:12.973Z,985.31
2022-11-16T09:51:13.632Z,985.33
2022-11-16T09:52:14.272Z,985.37
2022-11-16T09:53:13.566Z,985.33
2022-11-16T09:54:13.503Z,985.36
2022-11-16T09:55:15.999Z,985.37
2022-11-16T09:56:19.171Z,985.39
2022-11-16T09:57:13.685Z,985.33
2022-11-16T09:58:13.515Z,985.38
2022-11-16T09:59:17.835Z,985.41
2022-11-16T10:00:13.287Z,985.42
2022-11-16T10:01:13.233Z,985.42
2022-11-16T10:02:13.724Z,985.42
2022-11-16T10:03:13.676Z,985.38
2022-11-16T10:04:14.026Z,985.33
2022-11-16T10:05:13.017Z,985.36
2022-11-16T10:06:13.186Z,985.37
2022-11-16T10:07:13.332Z,985.38
2022-11-16T10:08:13.537Z,985.36
2022-11-16T10:09:13.420Z,985.36
2022-11-16T10:10:13.374Z,985.37
2022-11-16T10:11:13.340Z,985.35
2022-11-16T10:12:13.595Z,985.39
2022-11-16T10:13:13.581Z,985.35
2022-11-16T10:14:13.813Z,985.44
2022-11-16T10:15:13.939Z,985.37
2022-11-16T10:16:13.062Z,985.40
2022-11-16T10:17:13.017Z,985.35
2022-11-16T10:18:12.940Z,985.43
2022-11-16T10:19:12.896Z,985.43
2022-11-16T10:20:12.822Z,985.42
2022-11-16T10:21:14.029Z,985.42
2022-11-16T10:22:13.075Z,985.38
2022-11-16T10:23:12.978Z,985.40
2022-11-16T10:24:12.984Z,985.40
2022-11-16T10:25:13.964Z,985.34
2022-11-16T10:26:17.977Z,985.30
2022-11-16T10:27:14.728Z,985.31
2022-11-16T10:28:13.763Z,985.35
2022-11-16T10:29:13.753Z,985.33
2022-11-16T10:30:13.616Z,985.30
2022-11-16T10:31:13.571Z,985.34
2022-11-16T10:32:13.483Z,985.34
2022-11-16T10:33:13.419Z,985.33
2022-11-16T10:34:13.311Z,985.31
2022-11-16T10:35:13.219Z,985.34
2022-11-16T10:36:13.239Z,985.31
2022-11-16T10:37:13.202Z,985.31
2022-11-16T10:38:13.171Z,985.27
2022-11-16T10:39:13.320Z,985.28
2022-11-16T10:40:13.381Z,985.30
2022-11-16T10:41:13.624Z,985.27
2022-11-16T10:42:13.749Z,985.24
2022-11-16T10:43:13.623Z,985.27
2022-11-16T10:44:13.900Z,985.23
2022-11-16T10:45:12.977Z,985.24
2022-11-16T10:46:12.832Z,985.21
2022-11-16T10:47:13.819Z,985.20
2022-11-16T10:48:13.817Z,985.18
2022-11-16T10:49:14.062Z,985.18
2022-11-16T10:50:12.924Z,985.19
2022-11-16T10:51:12.981Z,985.15
2022-11-16T10:52:12.873Z,985.11
2022-11-16T10:53:13.776Z,985.16
2022-11-16T10:54:13.729Z,985.19
2022-11-16T10:55:13.737Z,985.07
2022-11-16T10:56:14.031Z,985.01
2022-11-16T10:57:12.996Z,985.07
2022-11-16T10:58:13.100Z,985.01
2022-11-16T10:59:13.049Z,985.04
2022-11-16T11:00:16.113Z,985.03
2022-11-16T11:01:13.511Z,985.02
2022-11-16T11:02:13.639Z,984.99
2022-11-16T11:03:13.601Z,984.94
2022-11-16T11:04:13.998Z,984.92
2022-11-16T11:05:13.008Z,984.96
2022-11-16T11:06:13.120Z,984.94
2022-11-16T11:07:13.106Z,984.96
2022-11-16T11:08:13.152Z,984.94
2022-11-16T11:09:13.089Z,984.94
2022-11-16T11:10:12.941Z,984.98
2022-11-16T11:11:12.924Z,984.94
2022-11-16T11:12:12.836Z,984.96
2022-11-16T11:13:13.894Z,984.92
2022-11-16T11:14:12.981Z,984.92
2022-11-16T11:15:12.962Z,984.95
2022-11-16T11:16:13.140Z,984.93
2022-11-16T11:17:13.060Z,984.93
2022-11-16T11:18:13.050Z,984.90
2022-11-16T11:19:35.389Z,984.87
2022-11-16T11:20:13.617Z,984.88
2022-11-16T11:21:17.161Z,984.85
2022-11-16T11:22:13.389Z,984.87
2022-11-16T11:23:13.544Z,984.88
2022-11-16T11:24:42.816Z,984.81
2022-11-16T11:25:13.677Z,984.86
2022-11-16T11:26:13.963Z,984.86
2022-11-16T11:27:13.423Z,984.89
2022-11-16T11:28:13.362Z,984.87
2022-11-16T11:29:13.414Z,984.91
2022-11-16T11:30:13.306Z,984.84
2022-11-16T11:31:13.732Z,984.83
2022-11-16T11:32:16.869Z,984.85
2022-11-16T11:33:13.458Z,984.91
2022-11-16T11:34:13.798Z,984.92
2022-11-16T11:35:13.804Z,984.84
2022-11-16T11:36:13.788Z,984.86
2022-11-16T11:37:14.071Z,984.86
2022-11-16T11:38:13.111Z,984.87
2022-11-16T11:39:13.157Z,984.79
2022-11-16T11:40:13.039Z,984.84
2022-11-16T11:41:13.073Z,984.79
2022-11-16T11:42:12.986Z,984.75
2022-11-16T11:43:18.712Z,984.72
2022-11-16T11:44:13.189Z,984.75
2022-11-16T11:45:13.128Z,984.72
2022-11-16T11:46:13.568Z,984.69
2022-11-16T11:47:56.313Z,984.70
2022-11-16T11:48:13.768Z,984.69
2022-11-16T11:49:13.718Z,984.66
2022-11-16T11:50:13.685Z,984.60
2022-11-16T11:51:13.654Z,984.65
2022-11-16T11:52:13.595Z,984.65
2022-11-16T11:53:13.501Z,984.58
2022-11-16T11:54:13.409Z,984.63
2022-11-16T11:55:13.332Z,984.57
2022-11-16T11:56:13.511Z,984.59
2022-11-16T11:57:13.892Z,984.52
2022-11-16T11:58:13.936Z,984.55
2022-11-16T11:59:12.999Z,984.55
2022-11-16T12:00:13.487Z,984.55
2022-11-16T12:01:13.477Z,984.57
2022-11-16T12:02:13.701Z,984.50
2022-11-16T12:03:14.015Z,984.54
2022-11-16T12:04:12.943Z,984.55
2022-11-16T12:05:13.303Z,984.57
2022-11-16T12:06:13.541Z,984.57
2022-11-16T12:07:13.524Z,984.56
2022-11-16T12:08:13.599Z,984.55
2022-11-16T12:09:13.606Z,984.53
2022-11-16T12:10:13.539Z,984.60
2022-11-16T12:11:13.937Z,984.60
2022-11-16T12:12:14.839Z,984.57
2022-11-16T12:13:13.248Z,984.59
2022-11-16T12:14:13.376Z,984.57
2022-11-16T12:15:13.300Z,984.57
2022-11-16T12:16:13.651Z,984.50
2022-11-16T12:17:13.659Z,984.54
2022-11-16T12:18:13.624Z,984.55
2022-11-16T12:19:13.806Z,984.46
2022-11-16T12:20:14.046Z,984.48
2022-11-16T12:21:13.129Z,984.52
2022-11-16T12:22:13.048Z,984.49
2022-11-16T12:23:12.950Z,984.45
2022-11-16T12:24:12.954Z,984.42
2022-11-16T12:25:13.041Z,984.45
2022-11-16T12:26:12.875Z,984.47
2022-11-16T12:27:14.348Z,984.44
2022-11-16T12:28:13.555Z,984.41
2022-11-16T12:29:13.584Z,984.43
2022-11-16T12:30:13.514Z,984.39
2022-11-16T12:31:14.164Z,984.43
2022-11-16T12:32:13.061Z,984.44
2022-11-16T12:33:12.977Z,984.43
2022-11-16T12:34:12.872Z,984.48
2022-11-16T12:35:13.811Z,984.46
2022-11-16T12:36:13.840Z,984.45